FMMT

Toamasina Airport

Madagascar
METAR FMMT 152000Z 00000KT 9999 FEW017 17/16 Q1020
Observed Flight Rules
Jul-15 @ 20:00 UTC (an hour ago) Visual Flight Rules
Visibility Clouds
10,000+ meters
  • Few at 1,700' AGL
Temperatures Readings
Current 17°C / 63°F
Dewpoint 16°C / 61°F
Humidity 94%
Altimeter 30.12" Hg
Pressure 1020 hPa
Elevation 6
METAR FMMT 152000Z 00000KT 9999 FEW017 17/16 Q1020
Observed Flight Rules
Jul-15 @ 20:00 UTC
(an hour ago)
VFR
Clouds
  • Few at 1,700' AGL
Temperature Dewpoint
17°C / 63°F 16°C / 61°F
Humidity Altimeter Pressure
94% 30.12" Hg 1020 hPa